KJAC/JAC METAR and TAF weather

Enter ICAO airport designator
Station Type Date Time Source
KJAC METAR 2020/06/06 01:56 UTC NOAA

KJAC 060156Z 00000KT 10SM CLR 24/07 A2984 RMK AO2 SLP042 T02440072


Station Type Date Time Source
KJAC Decoded METAR 2020/06/06 01:56 UTC NOAA

Jackson, Jackson Hole Airport, WY, United States (KJAC) 43-36N 110-44W
Jun 05, 2020 - 09:56 PM EDT / 2020.06.06 0156 UTC
Wind: Calm:0
Visibility: 10 mile(s):0
Sky conditions: clear
Temperature: 75.9 F (24.4 C)
Dew Point: 45.0 F (7.2 C)
Relative Humidity: 33%
Pressure (altimeter): 29.84 in. Hg (1010 hPa)
ob: KJAC 060156Z 00000KT 10SM CLR 24/07 A2984 RMK AO2 SLP042 T02440072
cycle: 2

Station Type Date Time Source
KJAC TAF 2020/06/05 18:40 UTC NOAA

TAF KJAC 051738Z 0518/0618 21006KT P6SM FEW200
FM051900 20015G25KT P6SM SCT200
FM060500 36010KT P6SM OVC150
FM060900 36008KT P6SM VCSH BKN070

Example: see airport list